Main page
METAR-TAF:

METAR-TAF

Airports :

Glasgow Airport

Glasgow, Montana, United States

latitude: 48-12-50N, longitude: 106-37-17W, elevation: 2293 ft

Current weather observation

The report was made 12 minutes ago, at 08:53 UTC
Wind 3 mph from the South
Temperature 45°F
Humidity 70%
Pressure 29.71 in. Hg
Visibility: 10 miles
Clear sky

METAR: KGGW 130853Z AUTO 19003KT 10SM CLR 07/02 A2971 RMK AO2 SLP058 T00720022 51001

Time: 03:05 (09:05 UTC)

Forecast

The report was made 3 hours and 45 minutes ago, at 05:20 UTC
Forecast valid from 13 at 06 UTC to 14 at 06 UTC
Wind 10 mph from the West
Visibility: 6 miles
Few clouds at a height of 24000 ft
From 13 at 1700 UTC
Wind 9 mph from the West/Northwest
Visibility: 6 miles
Scattered clouds at a height of 6000 ft

TAF: KGGW 130520Z 1306/1406 27009KT P6SM FEW240 FM131700 29008KT P6SM SCT060

Weather observations and forecasts of more than 4000 airports (METAR and TAF reports).

The available stations are represented by yellow and red dots on the map.

Hover mouse over dot to see the name of the station.

Then click to see weather observations and forecasts.

To change the map : click on the green buttons with a black cross to zoom in, on the green button with a dash to zoom out, or on the green arrows for adjacent maps.


METAR-TAF: